sensor_id;sensor_type;location;lat;lon;timestamp;pressure;altitude;pressure_sealevel;temperature;humidity
50636;BME280;36598;46.054;11.130;2023-02-11T00:00:08;101342.53;;;1.01;44.79
50636;BME280;36598;46.054;11.130;2023-02-11T00:02:33;101343.44;;;0.96;44.73
50636;BME280;36598;46.054;11.130;2023-02-11T00:04:59;101347.81;;;0.79;45.40
50636;BME280;36598;46.054;11.130;2023-02-11T00:07:28;101340.09;;;0.67;45.19
50636;BME280;36598;46.054;11.130;2023-02-11T00:09:53;101335.34;;;0.72;45.49
50636;BME280;36598;46.054;11.130;2023-02-11T00:12:18;101342.03;;;0.99;44.67
50636;BME280;36598;46.054;11.130;2023-02-11T00:14:44;101342.31;;;0.65;45.26
50636;BME280;36598;46.054;11.130;2023-02-11T00:17:09;101340.16;;;0.62;45.68
50636;BME280;36598;46.054;11.130;2023-02-11T00:19:34;101341.25;;;0.80;45.35
50636;BME280;36598;46.054;11.130;2023-02-11T00:21:59;101341.47;;;0.83;45.23
50636;BME280;36598;46.054;11.130;2023-02-11T00:24:25;101336.34;;;0.44;46.05
50636;BME280;36598;46.054;11.130;2023-02-11T00:26:50;101337.50;;;0.75;45.68
50636;BME280;36598;46.054;11.130;2023-02-11T00:29:15;101339.91;;;0.77;45.53
50636;BME280;36598;46.054;11.130;2023-02-11T00:31:41;101333.38;;;0.78;45.18
50636;BME280;36598;46.054;11.130;2023-02-11T00:34:06;101338.81;;;0.78;45.09
50636;BME280;36598;46.054;11.130;2023-02-11T00:36:31;101335.88;;;0.74;45.32
50636;BME280;36598;46.054;11.130;2023-02-11T00:38:57;101336.56;;;0.47;45.50
50636;BME280;36598;46.054;11.130;2023-02-11T00:41:23;101342.34;;;0.79;45.48
50636;BME280;36598;46.054;11.130;2023-02-11T00:43:49;101344.81;;;0.94;44.93
50636;BME280;36598;46.054;11.130;2023-02-11T00:46:14;101342.84;;;0.81;44.91
50636;BME280;36598;46.054;11.130;2023-02-11T00:48:40;101348.03;;;0.63;45.59
50636;BME280;36598;46.054;11.130;2023-02-11T00:51:05;101340.31;;;0.70;45.44
50636;BME280;36598;46.054;11.130;2023-02-11T00:53:31;101335.66;;;0.33;46.32
50636;BME280;36598;46.054;11.130;2023-02-11T00:55:57;101342.81;;;0.48;46.50
50636;BME280;36598;46.054;11.130;2023-02-11T00:58:22;101343.78;;;0.57;46.15
50636;BME280;36598;46.054;11.130;2023-02-11T01:00:47;101341.69;;;0.68;45.80
50636;BME280;36598;46.054;11.130;2023-02-11T01:08:59;101343.25;;;0.55;46.27
50636;BME280;36598;46.054;11.130;2023-02-11T01:11:24;101344.50;;;0.44;46.25
50636;BME280;36598;46.054;11.130;2023-02-11T01:13:50;101337.72;;;0.41;46.11
50636;BME280;36598;46.054;11.130;2023-02-11T01:16:16;101337.28;;;0.53;45.30
50636;BME280;36598;46.054;11.130;2023-02-11T01:18:41;101343.19;;;0.41;45.70
50636;BME280;36598;46.054;11.130;2023-02-11T01:21:22;101334.69;;;0.05;47.03
50636;BME280;36598;46.054;11.130;2023-02-11T01:23:48;101335.00;;;-0.20;47.85
50636;BME280;36598;46.054;11.130;2023-02-11T01:26:13;101332.91;;;-0.29;48.41
50636;BME280;36598;46.054;11.130;2023-02-11T01:28:38;101329.81;;;0.02;47.34
50636;BME280;36598;46.054;11.130;2023-02-11T01:31:04;101330.91;;;0.44;46.46
50636;BME280;36598;46.054;11.130;2023-02-11T01:33:29;101324.84;;;0.47;46.49
50636;BME280;36598;46.054;11.130;2023-02-11T01:35:54;101323.44;;;0.49;46.45
50636;BME280;36598;46.054;11.130;2023-02-11T01:38:21;101326.16;;;0.12;47.30
50636;BME280;36598;46.054;11.130;2023-02-11T01:41:09;101331.59;;;0.12;47.16
50636;BME280;36598;46.054;11.130;2023-02-11T01:43:37;101318.97;;;0.40;47.07
50636;BME280;36598;46.054;11.130;2023-02-11T01:51:03;101308.72;;;-0.30;47.74
50636;BME280;36598;46.054;11.130;2023-02-11T01:53:30;101313.00;;;0.19;47.05
50636;BME280;36598;46.054;11.130;2023-02-11T01:56:14;101310.72;;;0.45;46.72
50636;BME280;36598;46.054;11.130;2023-02-11T01:59:02;101296.72;;;0.33;46.74
50636;BME280;36598;46.054;11.130;2023-02-11T02:01:28;101296.25;;;0.63;46.27
50636;BME280;36598;46.054;11.130;2023-02-11T02:03:56;101303.50;;;0.54;46.34
50636;BME280;36598;46.054;11.130;2023-02-11T02:08:54;101296.88;;;0.60;46.75
50636;BME280;36598;46.054;11.130;2023-02-11T02:11:21;101284.88;;;0.42;46.96
50636;BME280;36598;46.054;11.130;2023-02-11T02:13:47;101288.03;;;0.12;47.40
50636;BME280;36598;46.054;11.130;2023-02-11T02:16:14;101285.25;;;0.36;47.21
50636;BME280;36598;46.054;11.130;2023-02-11T02:31:33;101284.19;;;-0.06;48.59
50636;BME280;36598;46.054;11.130;2023-02-11T02:37:23;101273.53;;;-0.03;48.59
50636;BME280;36598;46.054;11.130;2023-02-11T02:39:40;101270.38;;;-0.10;48.44
50636;BME280;36598;46.054;11.130;2023-02-11T02:42:06;101267.81;;;0.18;47.78
50636;BME280;36598;46.054;11.130;2023-02-11T02:44:31;101255.09;;;0.13;47.35
50636;BME280;36598;46.054;11.130;2023-02-11T02:46:57;101254.66;;;0.06;47.88
50636;BME280;36598;46.054;11.130;2023-02-11T02:49:22;101255.22;;;0.41;47.35
50636;BME280;36598;46.054;11.130;2023-02-11T02:54:38;101259.50;;;0.09;47.45
50636;BME280;36598;46.054;11.130;2023-02-11T03:05:05;101257.88;;;-0.11;48.59
50636;BME280;36598;46.054;11.130;2023-02-11T03:10:01;101271.28;;;-0.62;49.16
50636;BME280;36598;46.054;11.130;2023-02-11T03:12:28;101272.81;;;-0.51;48.77
50636;BME280;36598;46.054;11.130;2023-02-11T03:14:55;101270.59;;;-0.06;48.81
50636;BME280;36598;46.054;11.130;2023-02-11T03:17:22;101260.66;;;-0.16;49.05
50636;BME280;36598;46.054;11.130;2023-02-11T03:19:48;101268.59;;;-0.19;48.75
50636;BME280;36598;46.054;11.130;2023-02-11T03:22:31;101262.44;;;-0.49;49.09
50636;BME280;36598;46.054;11.130;2023-02-11T03:24:57;101261.22;;;-0.38;48.61
50636;BME280;36598;46.054;11.130;2023-02-11T03:27:32;101257.94;;;-0.59;49.41
50636;BME280;36598;46.054;11.130;2023-02-11T03:30:13;101252.34;;;-0.48;49.35
50636;BME280;36598;46.054;11.130;2023-02-11T03:32:40;101256.75;;;-0.10;49.30
50636;BME280;36598;46.054;11.130;2023-02-11T03:35:11;101256.34;;;-0.41;48.67
50636;BME280;36598;46.054;11.130;2023-02-11T03:37:50;101263.72;;;-0.94;51.14
50636;BME280;36598;46.054;11.130;2023-02-11T03:40:18;101241.56;;;-0.54;49.63
50636;BME280;36598;46.054;11.130;2023-02-11T03:42:45;101249.81;;;-0.40;49.70
50636;BME280;36598;46.054;11.130;2023-02-11T03:45:12;101256.09;;;-0.20;48.92
50636;BME280;36598;46.054;11.130;2023-02-11T03:47:40;101242.41;;;-0.58;48.84
50636;BME280;36598;46.054;11.130;2023-02-11T03:50:07;101244.00;;;-0.76;50.55
50636;BME280;36598;46.054;11.130;2023-02-11T03:52:35;101241.22;;;-0.47;49.33
50636;BME280;36598;46.054;11.130;2023-02-11T03:55:02;101232.97;;;-0.42;49.88
50636;BME280;36598;46.054;11.130;2023-02-11T03:57:29;101237.78;;;-0.34;49.64
50636;BME280;36598;46.054;11.130;2023-02-11T03:59:58;101235.38;;;-0.59;49.55
50636;BME280;36598;46.054;11.130;2023-02-11T04:02:33;101235.63;;;-0.37;49.71
50636;BME280;36598;46.054;11.130;2023-02-11T04:04:59;101230.34;;;-0.09;49.08
50636;BME280;36598;46.054;11.130;2023-02-11T04:07:25;101235.88;;;-0.57;49.42
50636;BME280;36598;46.054;11.130;2023-02-11T04:09:50;101241.53;;;-0.30;49.25
50636;BME280;36598;46.054;11.130;2023-02-11T04:12:16;101236.56;;;-0.46;49.24
50636;BME280;36598;46.054;11.130;2023-02-11T04:14:41;101242.81;;;-0.46;49.96
50636;BME280;36598;46.054;11.130;2023-02-11T04:17:06;101232.97;;;-0.42;50.04
50636;BME280;36598;46.054;11.130;2023-02-11T04:19:32;101233.78;;;-0.41;50.05
50636;BME280;36598;46.054;11.130;2023-02-11T04:21:57;101233.50;;;-0.40;49.14
50636;BME280;36598;46.054;11.130;2023-02-11T04:24:22;101235.63;;;-0.37;48.97
50636;BME280;36598;46.054;11.130;2023-02-11T04:26:48;101226.59;;;-0.32;48.79
50636;BME280;36598;46.054;11.130;2023-02-11T04:29:13;101230.13;;;-0.32;49.05
50636;BME280;36598;46.054;11.130;2023-02-11T04:31:39;101238.28;;;-0.32;49.53
50636;BME280;36598;46.054;11.130;2023-02-11T04:34:04;101234.09;;;-0.24;48.78
50636;BME280;36598;46.054;11.130;2023-02-11T04:36:29;101232.75;;;-0.45;48.69
50636;BME280;36598;46.054;11.130;2023-02-11T04:38:54;101233.16;;;-0.33;48.74
50636;BME280;36598;46.054;11.130;2023-02-11T04:41:20;101231.25;;;-0.14;48.14
50636;BME280;36598;46.054;11.130;2023-02-11T04:43:45;101229.00;;;-0.31;48.24
50636;BME280;36598;46.054;11.130;2023-02-11T04:46:10;101227.38;;;-0.51;49.21
50636;BME280;36598;46.054;11.130;2023-02-11T04:48:35;101226.88;;;-0.77;50.53
50636;BME280;36598;46.054;11.130;2023-02-11T04:51:01;101222.41;;;-0.67;49.22
50636;BME280;36598;46.054;11.130;2023-02-11T04:53:26;101217.69;;;-0.38;49.94
50636;BME280;36598;46.054;11.130;2023-02-11T04:55:52;101219.22;;;-0.74;50.04
50636;BME280;36598;46.054;11.130;2023-02-11T04:58:17;101208.91;;;-0.30;48.87
50636;BME280;36598;46.054;11.130;2023-02-11T05:00:42;101213.38;;;-0.20;48.70
50636;BME280;36598;46.054;11.130;2023-02-11T05:03:08;101218.31;;;-0.89;50.30
50636;BME280;36598;46.054;11.130;2023-02-11T05:05:33;101222.00;;;-0.80;50.86
50636;BME280;36598;46.054;11.130;2023-02-11T05:07:58;101217.47;;;-1.13;51.86
50636;BME280;36598;46.054;11.130;2023-02-11T05:10:23;101211.13;;;-0.80;50.39
50636;BME280;36598;46.054;11.130;2023-02-11T05:12:49;101221.00;;;-0.41;49.21
50636;BME280;36598;46.054;11.130;2023-02-11T05:15:14;101223.25;;;-0.48;49.80
50636;BME280;36598;46.054;11.130;2023-02-11T05:17:39;101231.25;;;-0.81;50.49
50636;BME280;36598;46.054;11.130;2023-02-11T05:20:05;101225.28;;;-0.83;50.77
50636;BME280;36598;46.054;11.130;2023-02-11T05:22:30;101223.47;;;-1.16;51.48
50636;BME280;36598;46.054;11.130;2023-02-11T05:24:56;101226.53;;;-0.94;52.52
50636;BME280;36598;46.054;11.130;2023-02-11T05:27:21;101222.22;;;-1.00;51.13
50636;BME280;36598;46.054;11.130;2023-02-11T05:29:46;101217.09;;;-1.02;52.49
50636;BME280;36598;46.054;11.130;2023-02-11T05:32:11;101218.19;;;-0.79;51.67
50636;BME280;36598;46.054;11.130;2023-02-11T05:34:37;101219.63;;;-0.86;52.44
50636;BME280;36598;46.054;11.130;2023-02-11T05:37:02;101215.41;;;-0.73;51.08
50636;BME280;36598;46.054;11.130;2023-02-11T05:39:27;101215.13;;;-0.72;51.93
50636;BME280;36598;46.054;11.130;2023-02-11T05:41:52;101215.41;;;-0.49;51.05
50636;BME280;36598;46.054;11.130;2023-02-11T05:44:18;101204.66;;;-0.84;51.75
50636;BME280;36598;46.054;11.130;2023-02-11T05:46:43;101207.25;;;-0.73;51.02
50636;BME280;36598;46.054;11.130;2023-02-11T05:49:08;101201.41;;;-0.86;51.68
50636;BME280;36598;46.054;11.130;2023-02-11T05:51:34;101203.59;;;-1.12;52.04
50636;BME280;36598;46.054;11.130;2023-02-11T05:53:59;101196.09;;;-0.72;51.19
50636;BME280;36598;46.054;11.130;2023-02-11T05:56:24;101199.63;;;-0.71;50.84
50636;BME280;36598;46.054;11.130;2023-02-11T05:58:50;101201.88;;;-0.79;51.43
50636;BME280;36598;46.054;11.130;2023-02-11T06:01:15;101203.06;;;-1.43;53.32
50636;BME280;36598;46.054;11.130;2023-02-11T06:03:40;101207.59;;;-1.33;52.65
50636;BME280;36598;46.054;11.130;2023-02-11T06:06:11;101209.69;;;-1.25;52.31
50636;BME280;36598;46.054;11.130;2023-02-11T06:08:37;101220.91;;;-1.03;52.66
50636;BME280;36598;46.054;11.130;2023-02-11T06:11:02;101223.06;;;-0.76;50.87
50636;BME280;36598;46.054;11.130;2023-02-11T06:13:28;101215.66;;;-0.94;52.15
50636;BME280;36598;46.054;11.130;2023-02-11T06:15:56;101218.56;;;-1.14;52.61
50636;BME280;36598;46.054;11.130;2023-02-11T06:18:22;101216.91;;;-0.86;50.85
50636;BME280;36598;46.054;11.130;2023-02-11T06:20:47;101219.69;;;-0.67;50.88
50636;BME280;36598;46.054;11.130;2023-02-11T06:23:12;101216.91;;;-0.62;50.69
50636;BME280;36598;46.054;11.130;2023-02-11T06:25:38;101209.50;;;-0.57;49.81
50636;BME280;36598;46.054;11.130;2023-02-11T06:28:03;101207.50;;;-0.94;50.13
50636;BME280;36598;46.054;11.130;2023-02-11T06:30:28;101204.97;;;-0.85;50.40
50636;BME280;36598;46.054;11.130;2023-02-11T06:32:54;101206.59;;;-1.13;51.45
50636;BME280;36598;46.054;11.130;2023-02-11T06:35:19;101205.22;;;-1.11;51.99
50636;BME280;36598;46.054;11.130;2023-02-11T06:37:44;101204.09;;;-0.81;50.66
50636;BME280;36598;46.054;11.130;2023-02-11T06:40:10;101199.97;;;-0.54;50.11
50636;BME280;36598;46.054;11.130;2023-02-11T06:42:36;101203.13;;;-0.47;50.27
50636;BME280;36598;46.054;11.130;2023-02-11T06:45:03;101207.22;;;-0.68;50.15
50636;BME280;36598;46.054;11.130;2023-02-11T06:47:30;101214.31;;;-0.72;49.85
50636;BME280;36598;46.054;11.130;2023-02-11T06:49:55;101212.97;;;-0.99;51.21
50636;BME280;36598;46.054;11.130;2023-02-11T06:52:20;101210.16;;;-0.89;51.24
50636;BME280;36598;46.054;11.130;2023-02-11T06:54:45;101218.41;;;-0.51;50.02
50636;BME280;36598;46.054;11.130;2023-02-11T06:57:11;101225.56;;;-1.08;52.34
50636;BME280;36598;46.054;11.130;2023-02-11T06:59:36;101216.13;;;-1.45;52.12
50636;BME280;36598;46.054;11.130;2023-02-11T07:02:01;101228.28;;;-1.37;53.73
50636;BME280;36598;46.054;11.130;2023-02-11T07:04:26;101225.81;;;-1.34;53.53
50636;BME280;36598;46.054;11.130;2023-02-11T07:06:52;101220.84;;;-0.97;52.38
50636;BME280;36598;46.054;11.130;2023-02-11T07:09:17;101225.00;;;-0.57;50.70
50636;BME280;36598;46.054;11.130;2023-02-11T07:11:42;101230.34;;;-0.09;50.21
50636;BME280;36598;46.054;11.130;2023-02-11T07:14:08;101228.00;;;-0.16;49.86
50636;BME280;36598;46.054;11.130;2023-02-11T07:16:34;101234.50;;;0.07;49.36
50636;BME280;36598;46.054;11.130;2023-02-11T07:18:59;101230.28;;;0.34;48.56
50636;BME280;36598;46.054;11.130;2023-02-11T07:21:24;101240.72;;;0.45;48.32
50636;BME280;36598;46.054;11.130;2023-02-11T07:23:50;101234.13;;;0.65;47.73
50636;BME280;36598;46.054;11.130;2023-02-11T07:26:17;101233.38;;;0.27;48.69
50636;BME280;36598;46.054;11.130;2023-02-11T07:28:43;101228.22;;;0.44;48.33
50636;BME280;36598;46.054;11.130;2023-02-11T07:31:09;101228.50;;;0.75;47.32
50636;BME280;36598;46.054;11.130;2023-02-11T07:33:34;101226.41;;;0.02;49.06
50636;BME280;36598;46.054;11.130;2023-02-11T07:36:01;101227.50;;;0.85;47.37
50636;BME280;36598;46.054;11.130;2023-02-11T07:38:26;101226.69;;;0.71;47.09
50636;BME280;36598;46.054;11.130;2023-02-11T07:40:51;101219.88;;;1.15;45.97
50636;BME280;36598;46.054;11.130;2023-02-11T07:43:16;101232.31;;;0.61;47.28
50636;BME280;36598;46.054;11.130;2023-02-11T07:45:42;101225.03;;;1.44;45.77
50636;BME280;36598;46.054;11.130;2023-02-11T07:48:07;101223.31;;;1.48;45.37
50636;BME280;36598;46.054;11.130;2023-02-11T07:50:32;101224.94;;;1.49;45.61
50636;BME280;36598;46.054;11.130;2023-02-11T07:52:58;101220.88;;;1.74;44.51
50636;BME280;36598;46.054;11.130;2023-02-11T07:55:23;101225.34;;;1.29;46.41
50636;BME280;36598;46.054;11.130;2023-02-11T07:57:48;101228.69;;;1.25;45.80
50636;BME280;36598;46.054;11.130;2023-02-11T08:00:14;101225.16;;;1.25;46.13
50636;BME280;36598;46.054;11.130;2023-02-11T08:02:40;101227.16;;;1.19;46.52
50636;BME280;36598;46.054;11.130;2023-02-11T08:05:05;101217.66;;;1.72;46.02
50636;BME280;36598;46.054;11.130;2023-02-11T08:07:31;101220.94;;;1.83;45.19
50636;BME280;36598;46.054;11.130;2023-02-11T08:09:56;101209.66;;;1.62;44.90
50636;BME280;36598;46.054;11.130;2023-02-11T08:12:21;101217.31;;;2.23;44.21
50636;BME280;36598;46.054;11.130;2023-02-11T08:14:46;101209.03;;;2.15;44.54
50636;BME280;36598;46.054;11.130;2023-02-11T08:17:12;101207.13;;;7.01;35.38
50636;BME280;36598;46.054;11.130;2023-02-11T08:19:37;101210.16;;;12.12;27.44
50636;BME280;36598;46.054;11.130;2023-02-11T08:22:02;101209.63;;;16.71;21.22
50636;BME280;36598;46.054;11.130;2023-02-11T08:24:28;101213.75;;;19.00;18.47
50636;BME280;36598;46.054;11.130;2023-02-11T08:26:53;101206.59;;;20.53;17.05
50636;BME280;36598;46.054;11.130;2023-02-11T08:29:19;101211.38;;;21.08;16.10
50636;BME280;36598;46.054;11.130;2023-02-11T08:31:45;101212.75;;;22.94;14.10
50636;BME280;36598;46.054;11.130;2023-02-11T08:34:10;101218.81;;;23.44;13.58
50636;BME280;36598;46.054;11.130;2023-02-11T08:36:40;101210.31;;;24.57;12.59
50636;BME280;36598;46.054;11.130;2023-02-11T08:39:07;101200.31;;;24.65;12.87
50636;BME280;36598;46.054;11.130;2023-02-11T08:41:33;101202.59;;;24.80;12.38
50636;BME280;36598;46.054;11.130;2023-02-11T08:43:59;101200.44;;;25.42;11.74
50636;BME280;36598;46.054;11.130;2023-02-11T08:46:25;101202.94;;;28.37;10.00
50636;BME280;36598;46.054;11.130;2023-02-11T08:48:50;101203.63;;;29.67;8.89
50636;BME280;36598;46.054;11.130;2023-02-11T08:51:17;101192.91;;;30.03;8.74
50636;BME280;36598;46.054;11.130;2023-02-11T08:53:43;101193.88;;;26.80;10.26
50636;BME280;36598;46.054;11.130;2023-02-11T08:56:08;101191.16;;;24.92;11.42
50636;BME280;36598;46.054;11.130;2023-02-11T08:58:34;101180.47;;;24.12;12.14
50636;BME280;36598;46.054;11.130;2023-02-11T09:00:59;101188.47;;;22.97;12.44
50636;BME280;36598;46.054;11.130;2023-02-11T09:03:25;101188.47;;;24.89;11.80
50636;BME280;36598;46.054;11.130;2023-02-11T09:05:50;101191.38;;;23.32;12.39
50636;BME280;36598;46.054;11.130;2023-02-11T09:08:17;101186.69;;;24.82;11.45
50636;BME280;36598;46.054;11.130;2023-02-11T09:10:42;101186.03;;;21.57;13.43
50636;BME280;36598;46.054;11.130;2023-02-11T09:13:08;101199.84;;;17.56;16.97
50636;BME280;36598;46.054;11.130;2023-02-11T09:15:33;101198.31;;;17.48;16.85
50636;BME280;36598;46.054;11.130;2023-02-11T09:17:59;101191.53;;;18.24;16.45
50636;BME280;36598;46.054;11.130;2023-02-11T09:20:25;101194.53;;;16.58;17.48
50636;BME280;36598;46.054;11.130;2023-02-11T09:22:51;101189.44;;;19.17;15.46
50636;BME280;36598;46.054;11.130;2023-02-11T09:25:17;101183.97;;;20.76;14.42
50636;BME280;36598;46.054;11.130;2023-02-11T09:27:42;101191.63;;;22.19;13.22
50636;BME280;36598;46.054;11.130;2023-02-11T09:30:07;101178.88;;;25.36;11.66
50636;BME280;36598;46.054;11.130;2023-02-11T09:32:33;101177.00;;;24.61;11.98
50636;BME280;36598;46.054;11.130;2023-02-11T09:34:58;101186.63;;;22.78;12.86
50636;BME280;36598;46.054;11.130;2023-02-11T09:37:23;101178.69;;;19.35;15.17
50636;BME280;36598;46.054;11.130;2023-02-11T09:39:48;101180.69;;;18.57;16.19
50636;BME280;36598;46.054;11.130;2023-02-11T09:44:57;101183.28;;;16.68;18.02
50636;BME280;36598;46.054;11.130;2023-02-11T09:47:26;101179.06;;;18.29;16.95
50636;BME280;36598;46.054;11.130;2023-02-11T09:49:53;101188.34;;;18.84;16.60
50636;BME280;36598;46.054;11.130;2023-02-11T09:54:59;101172.88;;;19.93;15.14
50636;BME280;36598;46.054;11.130;2023-02-11T09:57:27;101174.72;;;20.59;15.14
50636;BME280;36598;46.054;11.130;2023-02-11T09:59:55;101168.31;;;19.09;16.09
50636;BME280;36598;46.054;11.130;2023-02-11T10:07:26;101158.56;;;19.64;15.23
50636;BME280;36598;46.054;11.130;2023-02-11T10:09:58;101170.41;;;17.82;16.45
50636;BME280;36598;46.054;11.130;2023-02-11T10:12:40;101161.03;;;17.58;16.78
50636;BME280;36598;46.054;11.130;2023-02-11T10:15:20;101152.22;;;19.13;15.68
50636;BME280;36598;46.054;11.130;2023-02-11T10:17:59;101150.91;;;22.20;13.50
50636;BME280;36598;46.054;11.130;2023-02-11T10:20:32;101141.19;;;24.67;11.84
50636;BME280;36598;46.054;11.130;2023-02-11T10:23:14;101142.81;;;25.36;11.63
50636;BME280;36598;46.054;11.130;2023-02-11T10:25:43;101146.41;;;24.38;12.05
50636;BME280;36598;46.054;11.130;2023-02-11T10:28:20;101134.44;;;24.74;11.58
50636;BME280;36598;46.054;11.130;2023-02-11T10:35:54;101124.09;;;17.70;16.98
50636;BME280;36598;46.054;11.130;2023-02-11T10:38:19;101119.47;;;15.58;19.82
50636;BME280;36598;46.054;11.130;2023-02-11T10:40:45;101111.84;;;15.87;18.51
50636;BME280;36598;46.054;11.130;2023-02-11T10:43:14;101111.13;;;15.58;18.70
50636;BME280;36598;46.054;11.130;2023-02-11T10:51:34;101104.22;;;16.71;17.52
50636;BME280;36598;46.054;11.130;2023-02-11T10:53:41;101096.63;;;16.72;17.56
50636;BME280;36598;46.054;11.130;2023-02-11T10:56:07;101097.91;;;15.80;18.60
50636;BME280;36598;46.054;11.130;2023-02-11T10:58:45;101092.66;;;16.03;18.40
50636;BME280;36598;46.054;11.130;2023-02-11T11:01:11;101087.19;;;15.71;18.40
50636;BME280;36598;46.054;11.130;2023-02-11T11:03:47;101090.06;;;15.07;19.04
50636;BME280;36598;46.054;11.130;2023-02-11T11:06:14;101082.28;;;13.82;20.27
50636;BME280;36598;46.054;11.130;2023-02-11T11:08:46;101079.84;;;13.08;21.52
50636;BME280;36598;46.054;11.130;2023-02-11T11:11:13;101065.34;;;14.37;20.09
50636;BME280;36598;46.054;11.130;2023-02-11T11:13:40;101067.13;;;13.10;21.05
50636;BME280;36598;46.054;11.130;2023-02-11T11:18:38;101061.88;;;12.50;22.16
50636;BME280;36598;46.054;11.130;2023-02-11T11:21:11;101065.66;;;11.94;22.30
50636;BME280;36598;46.054;11.130;2023-02-11T11:23:37;101050.38;;;12.96;21.71
50636;BME280;36598;46.054;11.130;2023-02-11T11:26:06;101057.25;;;13.86;20.32
50636;BME280;36598;46.054;11.130;2023-02-11T11:28:41;101044.53;;;13.85;20.53
50636;BME280;36598;46.054;11.130;2023-02-11T11:31:13;101046.53;;;13.95;20.07
50636;BME280;36598;46.054;11.130;2023-02-11T11:33:40;101032.56;;;12.12;22.09
50636;BME280;36598;46.054;11.130;2023-02-11T11:36:08;101031.84;;;12.18;21.68
50636;BME280;36598;46.054;11.130;2023-02-11T11:38:34;101030.66;;;12.19;22.02
50636;BME280;36598;46.054;11.130;2023-02-11T11:46:41;101028.00;;;13.30;20.88
50636;BME280;36598;46.054;11.130;2023-02-11T11:54:33;101009.16;;;15.35;19.36
50636;BME280;36598;46.054;11.130;2023-02-11T11:57:17;101004.22;;;17.31;17.09
50636;BME280;36598;46.054;11.130;2023-02-11T11:59:43;100984.72;;;16.38;18.25
50636;BME280;36598;46.054;11.130;2023-02-11T12:07:43;100972.34;;;18.13;16.57
50636;BME280;36598;46.054;11.130;2023-02-11T12:10:21;100974.25;;;19.34;16.15
50636;BME280;36598;46.054;11.130;2023-02-11T12:25:29;100958.09;;;15.45;18.42
50636;BME280;36598;46.054;11.130;2023-02-11T12:28:06;100950.41;;;14.69;18.65
50636;BME280;36598;46.054;11.130;2023-02-11T12:30:47;100948.78;;;14.78;19.14
50636;BME280;36598;46.054;11.130;2023-02-11T12:44:18;100902.72;;;12.97;21.05
50636;BME280;36598;46.054;11.130;2023-02-11T12:47:04;100903.19;;;13.14;20.87
50636;BME280;36598;46.054;11.130;2023-02-11T12:49:40;100905.75;;;13.51;20.53
50636;BME280;36598;46.054;11.130;2023-02-11T12:54:45;100893.63;;;13.04;20.63
50636;BME280;36598;46.054;11.130;2023-02-11T12:57:22;100892.03;;;13.03;21.49
50636;BME280;36598;46.054;11.130;2023-02-11T13:04:55;100873.22;;;13.91;22.50
50636;BME280;36598;46.054;11.130;2023-02-11T13:07:22;100878.38;;;13.99;21.42
50636;BME280;36598;46.054;11.130;2023-02-11T13:09:53;100868.44;;;13.84;25.18
50636;BME280;36598;46.054;11.130;2023-02-11T13:12:20;100857.31;;;14.31;24.27
50636;BME280;36598;46.054;11.130;2023-02-11T13:15:06;100851.75;;;14.23;21.77
50636;BME280;36598;46.054;11.130;2023-02-11T13:17:52;100853.34;;;13.96;24.72
50636;BME280;36598;46.054;11.130;2023-02-11T13:23:06;100844.16;;;13.42;21.51
50636;BME280;36598;46.054;11.130;2023-02-11T13:30:47;100840.13;;;12.38;22.66
50636;BME280;36598;46.054;11.130;2023-02-11T13:38:22;100825.16;;;11.53;22.92
50636;BME280;36598;46.054;11.130;2023-02-11T13:41:12;100822.16;;;11.73;23.14
50636;BME280;36598;46.054;11.130;2023-02-11T13:43:39;100815.97;;;11.87;22.96
50636;BME280;36598;46.054;11.130;2023-02-11T13:46:05;100816.28;;;11.82;22.68
50636;BME280;36598;46.054;11.130;2023-02-11T13:48:35;100817.13;;;11.86;23.07
50636;BME280;36598;46.054;11.130;2023-02-11T13:51:05;100812.16;;;11.65;23.06
50636;BME280;36598;46.054;11.130;2023-02-11T13:53:48;100808.63;;;11.68;22.97
50636;BME280;36598;46.054;11.130;2023-02-11T13:58:51;100817.25;;;11.56;23.77
50636;BME280;36598;46.054;11.130;2023-02-11T14:04:05;100801.59;;;11.77;22.82
50636;BME280;36598;46.054;11.130;2023-02-11T14:07:20;100785.97;;;12.03;23.46
50636;BME280;36598;46.054;11.130;2023-02-11T14:09:52;100793.53;;;12.06;22.65
50636;BME280;36598;46.054;11.130;2023-02-11T14:12:29;100786.16;;;12.32;22.44
50636;BME280;36598;46.054;11.130;2023-02-11T14:14:59;100784.97;;;12.33;22.86
50636;BME280;36598;46.054;11.130;2023-02-11T14:17:26;100786.94;;;12.32;22.20
50636;BME280;36598;46.054;11.130;2023-02-11T14:19:52;100781.66;;;12.09;23.81
50636;BME280;36598;46.054;11.130;2023-02-11T14:22:27;100779.03;;;12.34;23.02
50636;BME280;36598;46.054;11.130;2023-02-11T14:27:29;100775.78;;;12.21;23.14
50636;BME280;36598;46.054;11.130;2023-02-11T14:42:40;100757.13;;;12.18;22.26
50636;BME280;36598;46.054;11.130;2023-02-11T14:45:06;100766.72;;;11.76;22.41
50636;BME280;36598;46.054;11.130;2023-02-11T14:47:46;100760.97;;;11.51;22.80
50636;BME280;36598;46.054;11.130;2023-02-11T14:50:16;100755.44;;;11.51;22.29
50636;BME280;36598;46.054;11.130;2023-02-11T14:52:42;100749.16;;;11.58;22.22
50636;BME280;36598;46.054;11.130;2023-02-11T14:57:33;100750.38;;;11.16;23.23
50636;BME280;36598;46.054;11.130;2023-02-11T15:00:00;100744.56;;;10.88;23.34
50636;BME280;36598;46.054;11.130;2023-02-11T15:02:44;100743.31;;;10.51;23.96
50636;BME280;36598;46.054;11.130;2023-02-11T15:07:41;100735.88;;;10.25;23.49
50636;BME280;36598;46.054;11.130;2023-02-11T15:10:13;100739.28;;;9.89;23.98
50636;BME280;36598;46.054;11.130;2023-02-11T15:12:39;100742.53;;;9.94;24.14
50636;BME280;36598;46.054;11.130;2023-02-11T15:15:04;100730.44;;;9.79;24.29
50636;BME280;36598;46.054;11.130;2023-02-11T15:17:30;100730.50;;;9.57;23.96